Time;durP1;ratioP1;P1;durP2;ratioP2;P2;SDS_P1;SDS_P2;PMS_P1;PMS_P2;Temp;Humidity;BMP_temperature;BMP_pressure;BME280_temperature;BME280_humidity;BME280_pressure;Samples;Min_cycle;Max_cycle;Signal;HPM_P1;HPM_P2
2024/01/28 00:00:34;;;;;;;74.18;8.70;;;;;;;;;;6146014;23;20486;-61
2024/01/28 00:03:21;;;;;;;85.27;8.97;;;;;;;;;;6146675;23;20132;-66
2024/01/28 00:06:16;;;;;;;71.70;8.27;;;;;;;;;;6140584;23;20057;-65
2024/01/28 00:09:03;;;;;;;74.32;6.72;;;;;;;;;;6146865;23;20180;-66
2024/01/28 00:11:57;;;;;;;73.90;8.50;;;;;;;;;;6146259;23;20829;-65
2024/01/28 00:14:44;;;;;;;75.60;8.55;;;;;;;;;;6145113;23;20033;-66
2024/01/28 00:17:38;;;;;;;73.32;7.60;;;;;;;;;;6144812;23;20240;-65
2024/01/28 00:20:05;;;;;;;67.55;8.13;;;;;;;;;;6145609;23;20053;-65
2024/01/28 00:22:32;;;;;;;82.57;7.53;;;;;;;;;;6146273;23;20483;-66
2024/01/28 00:25:13;;;;;;;72.85;7.82;;;;;;;;;;6144862;23;20084;-66
2024/01/28 00:27:47;;;;;;;78.22;7.20;;;;;;;;;;6145834;23;20021;-66
2024/01/28 00:30:20;;;;;;;72.40;7.97;;;;;;;;;;6146249;23;20542;-61
2024/01/28 00:32:48;;;;;;;88.20;7.97;;;;;;;;;;6145375;23;20022;-62
2024/01/28 00:35:15;;;;;;;76.10;6.85;;;;;;;;;;6144232;23;20030;-62
2024/01/28 00:37:48;;;;;;;85.25;8.57;;;;;;;;;;6144980;23;20632;-62
2024/01/28 00:40:16;;;;;;;84.18;9.02;;;;;;;;;;6145867;23;20355;-54
2024/01/28 00:42:50;;;;;;;79.78;8.23;;;;;;;;;;6146523;23;20025;-59
2024/01/28 00:45:17;;;;;;;96.30;8.73;;;;;;;;;;6146331;23;20027;-59
2024/01/28 00:47:45;;;;;;;84.28;9.32;;;;;;;;;;6146694;23;20485;-59
2024/01/28 00:50:20;;;;;;;61.25;7.47;;;;;;;;;;6120166;23;20479;-59
2024/01/28 00:52:48;;;;;;;93.88;8.07;;;;;;;;;;6146730;23;20113;-59
2024/01/28 00:55:22;;;;;;;98.20;8.07;;;;;;;;;;6143531;23;20351;-58
2024/01/28 00:57:50;;;;;;;;;;;;;;;;;;6148232;23;20344;-56
2024/01/28 01:00:17;;;;;;;74.13;7.72;;;;;;;;;;6147034;23;20326;-52
2024/01/28 01:02:53;;;;;;;91.13;9.88;;;;;;;;;;6145841;23;20113;-53
2024/01/28 01:05:20;;;;;;;87.65;8.70;;;;;;;;;;6144709;23;20034;-53
2024/01/28 01:08:00;;;;;;;79.65;8.02;;;;;;;;;;6147354;23;20044;-62
2024/01/28 01:10:28;;;;;;;96.28;9.68;;;;;;;;;;6145991;23;20026;-62
2024/01/28 01:13:02;;;;;;;71.43;9.35;;;;;;;;;;6140673;23;20032;-66
2024/01/28 01:15:32;;;;;;;79.40;9.30;;;;;;;;;;6147018;23;20028;-66
2024/01/28 01:18:00;;;;;;;78.53;9.35;;;;;;;;;;6145536;23;20697;-66
2024/01/28 01:20:34;;;;;;;74.53;7.43;;;;;;;;;;6145217;23;20028;-67
2024/01/28 01:23:01;;;;;;;82.60;7.95;;;;;;;;;;6145771;23;20026;-66
2024/01/28 01:25:28;;;;;;;70.35;8.35;;;;;;;;;;6144664;23;20029;-66
2024/01/28 01:28:24;;;;;;;85.93;8.77;;;;;;;;;;6143479;23;20088;-65
2024/01/28 01:31:10;;;;;;;100.88;8.45;;;;;;;;;;6144686;23;20057;-66
2024/01/28 01:34:04;;;;;;;68.55;6.18;;;;;;;;;;6144815;23;20029;-66
2024/01/28 01:36:51;;;;;;;59.92;6.47;;;;;;;;;;6143963;23;20241;-60
2024/01/28 01:39:45;;;;;;;75.25;6.45;;;;;;;;;;6144739;23;20733;-60
2024/01/28 01:42:32;;;;;;;64.07;6.93;;;;;;;;;;6146891;23;20021;-60
2024/01/28 01:45:25;;;;;;;66.32;6.32;;;;;;;;;;6146099;23;20095;-60
2024/01/28 01:48:20;;;;;;;63.30;7.65;;;;;;;;;;6145390;23;20030;-60
2024/01/28 01:51:14;;;;;;;72.85;7.13;;;;;;;;;;6145613;23;20028;-60
2024/01/28 01:54:08;;;;;;;84.90;8.18;;;;;;;;;;6144433;23;20459;-60
2024/01/28 01:57:02;;;;;;;69.38;7.53;;;;;;;;;;6143380;23;20104;-62
2024/01/28 01:59:49;;;;;;;74.82;8.18;;;;;;;;;;6144530;23;20507;-62
2024/01/28 02:02:47;;;;;;;84.68;7.93;;;;;;;;;;6143865;23;20025;-62
2024/01/28 02:05:31;;;;;;;67.75;7.60;;;;;;;;;;6141777;23;20025;-62
2024/01/28 02:08:26;;;;;;;87.70;9.40;;;;;;;;;;6144754;23;20092;-62
2024/01/28 02:11:12;;;;;;;89.53;8.48;;;;;;;;;;6143143;23;20036;-62
2024/01/28 02:14:06;;;;;;;87.13;9.30;;;;;;;;;;6143174;23;20097;-62
2024/01/28 02:16:53;;;;;;;68.93;7.47;;;;;;;;;;6144511;23;20022;-62
2024/01/28 02:19:47;;;;;;;91.70;7.15;;;;;;;;;;6143709;23;20025;-62
2024/01/28 02:22:34;;;;;;;65.18;8.18;;;;;;;;;;6144391;23;20029;-62
2024/01/28 02:25:28;;;;;;;72.72;7.63;;;;;;;;;;6142682;23;20026;-63
2024/01/28 02:28:21;;;;;;;67.78;7.90;;;;;;;;;;6143956;23;20032;-63
2024/01/28 02:31:16;;;;;;;99.00;8.25;;;;;;;;;;6144356;23;20295;-63
2024/01/28 02:34:09;;;;;;;78.57;8.95;;;;;;;;;;6144045;23;20104;-63
2024/01/28 02:37:04;;;;;;;81.78;8.13;;;;;;;;;;6144443;23;20017;-62
2024/01/28 02:39:57;;;;;;;79.32;8.07;;;;;;;;;;6145041;23;20561;-62
2024/01/28 02:42:45;;;;;;;89.35;8.75;;;;;;;;;;6143885;23;20025;-62
2024/01/28 02:45:39;;;;;;;73.25;7.63;;;;;;;;;;6144641;23;20029;-62
2024/01/28 02:48:26;;;;;;;108.07;8.70;;;;;;;;;;6145101;23;20026;-62
2024/01/28 02:51:20;;;;;;;78.03;9.52;;;;;;;;;;6145104;23;20073;-54
2024/01/28 02:54:07;;;;;;;85.55;8.40;;;;;;;;;;6143722;23;20027;-54
2024/01/28 02:57:00;;;;;;;110.90;9.90;;;;;;;;;;6145118;23;20032;-54
2024/01/28 02:59:48;;;;;;;94.60;9.02;;;;;;;;;;6142965;23;20024;-55
2024/01/28 03:02:48;;;;;;;103.95;10.82;;;;;;;;;;6143639;23;20127;-62
2024/01/28 03:05:42;;;;;;;84.53;9.40;;;;;;;;;;6142829;23;20733;-55
2024/01/28 03:08:29;;;;;;;109.53;9.45;;;;;;;;;;6143707;23;20064;-53
2024/01/28 03:11:30;;;;;;;90.78;9.57;;;;;;;;;;6143245;23;20022;-55
2024/01/28 03:14:17;;;;;;;95.65;9.07;;;;;;;;;;6143343;23;20092;-55
2024/01/28 03:17:12;;;;;;;90.82;9.50;;;;;;;;;;6143404;23;20319;-55
2024/01/28 03:19:59;;;;;;;99.82;10.70;;;;;;;;;;6143947;23;20384;-60
2024/01/28 03:22:52;;;;;;;104.20;10.52;;;;;;;;;;6142338;23;20191;-60
2024/01/28 03:25:47;;;;;;;105.63;9.68;;;;;;;;;;6141924;23;20039;-60
2024/01/28 03:28:42;;;;;;;86.80;9.48;;;;;;;;;;6142896;23;20040;-60
2024/01/28 03:31:29;;;;;;;68.15;7.45;;;;;;;;;;6145620;23;20028;-50
2024/01/28 03:34:23;;;;;;;85.35;9.18;;;;;;;;;;6144471;23;20032;-62
2024/01/28 03:37:10;;;;;;;103.22;11.20;;;;;;;;;;6145682;23;20105;-62
2024/01/28 03:40:05;;;;;;;120.65;10.63;;;;;;;;;;6145076;23;20032;-63
2024/01/28 03:42:51;;;;;;;85.00;9.40;;;;;;;;;;6145959;23;20057;-63
2024/01/28 03:45:45;;;;;;;91.20;10.05;;;;;;;;;;6145903;23;20021;-62
2024/01/28 03:48:32;;;;;;;92.15;10.20;;;;;;;;;;6144179;23;20472;-59
2024/01/28 03:51:26;;;;;;;76.93;10.15;;;;;;;;;;6145123;23;20040;-57
2024/01/28 03:54:13;;;;;;;97.00;9.77;;;;;;;;;;6144343;23;20029;-59
2024/01/28 03:57:07;;;;;;;99.13;9.60;;;;;;;;;;6143861;23;20681;-59
2024/01/28 03:59:54;;;;;;;87.93;9.63;;;;;;;;;;6143490;23;20032;-51
2024/01/28 04:02:48;;;;;;;87.50;10.43;;;;;;;;;;6144657;23;20025;-63
2024/01/28 04:05:35;;;;;;;111.70;10.57;;;;;;;;;;6141905;23;20026;-63
2024/01/28 04:08:29;;;;;;;96.90;10.50;;;;;;;;;;6144772;23;20463;-63
2024/01/28 04:11:16;;;;;;;106.80;11.00;;;;;;;;;;6143796;23;20468;-63
2024/01/28 04:14:10;;;;;;;65.28;9.25;;;;;;;;;;6141978;23;20026;-64
2024/01/28 04:17:03;;;;;;;87.80;11.00;;;;;;;;;;6144519;23;20025;-60
2024/01/28 04:19:58;;;;;;;90.43;11.15;;;;;;;;;;6143278;23;20061;-60
2024/01/28 04:22:45;;;;;;;88.20;10.05;;;;;;;;;;6144512;23;20022;-60
2024/01/28 04:25:39;;;;;;;86.30;9.20;;;;;;;;;;6143190;23;20092;-60
2024/01/28 04:28:32;;;;;;;90.65;10.32;;;;;;;;;;6144773;23;20041;-63
2024/01/28 04:31:27;;;;;;;88.18;10.18;;;;;;;;;;6144543;23;20479;-66
2024/01/28 04:34:21;;;;;;;64.32;9.13;;;;;;;;;;6142801;23;20029;-65
2024/01/28 04:37:09;;;;;;;69.00;9.52;;;;;;;;;;6147197;23;20470;-65
2024/01/28 04:40:04;;;;;;;63.83;7.93;;;;;;;;;;6144999;23;20017;-65
2024/01/28 04:42:50;;;;;;;77.68;8.27;;;;;;;;;;6144943;23;20092;-65
2024/01/28 04:45:43;;;;;;;73.63;9.60;;;;;;;;;;6143609;23;20479;-62
2024/01/28 04:48:31;;;;;;;82.07;10.45;;;;;;;;;;6145916;23;20030;-62
2024/01/28 04:51:28;;;;;;;70.93;8.52;;;;;;;;;;6145153;23;20047;-62
2024/01/28 04:54:14;;;;;;;92.25;10.35;;;;;;;;;;6140614;23;20100;-62
2024/01/28 04:57:06;;;;;;;77.85;9.43;;;;;;;;;;6143630;23;20538;-60
2024/01/28 04:59:53;;;;;;;71.50;9.30;;;;;;;;;;6144310;23;20631;-60
2024/01/28 05:02:47;;;;;;;60.33;7.43;;;;;;;;;;6144311;23;20025;-60
2024/01/28 05:05:34;;;;;;;65.88;8.70;;;;;;;;;;6145751;23;20021;-60
2024/01/28 05:08:27;;;;;;;75.05;8.55;;;;;;;;;;6144987;23;20029;-60
2024/01/28 05:11:15;;;;;;;70.32;8.77;;;;;;;;;;6143058;23;20414;-60
2024/01/28 05:14:09;;;;;;;65.43;7.93;;;;;;;;;;6143772;23;20025;-63
2024/01/28 05:16:58;;;;;;;59.85;7.38;;;;;;;;;;6144550;23;20463;-62
2024/01/28 05:19:50;;;;;;;68.55;8.93;;;;;;;;;;6144653;23;20025;-62
2024/01/28 05:22:37;;;;;;;57.90;7.63;;;;;;;;;;6143498;23;20859;-62
2024/01/28 05:25:43;;;;;;;71.50;8.43;;;;;;;;;;6144400;23;20025;-59
2024/01/28 05:28:38;;;;;;;64.35;9.40;;;;;;;;;;6144185;23;20403;-53
2024/01/28 05:31:32;;;;;;;49.03;6.78;;;;;;;;;;6143299;23;20403;-55
2024/01/28 05:34:19;;;;;;;45.35;7.40;;;;;;;;;;6145864;23;20032;-54
2024/01/28 05:37:16;;;;;;;55.80;7.35;;;;;;;;;;6144339;23;20060;-53
2024/01/28 05:40:04;;;;;;;48.28;7.82;;;;;;;;;;6145484;23;20088;-53
2024/01/28 05:42:57;;;;;;;59.05;6.53;;;;;;;;;;6145503;23;20026;-63
2024/01/28 05:45:45;;;;;;;58.00;9.65;;;;;;;;;;6142766;23;20030;-64
2024/01/28 05:48:38;;;;;;;39.35;5.53;;;;;;;;;;6144501;23;20025;-64
2024/01/28 05:51:27;;;;;;;46.30;6.70;;;;;;;;;;6143719;23;20021;-64
2024/01/28 05:54:20;;;;;;;55.72;8.05;;;;;;;;;;6143303;23;20022;-57
2024/01/28 05:57:14;;;;;;;41.38;6.75;;;;;;;;;;6145087;23;20029;-60
2024/01/28 06:00:08;;;;;;;56.75;6.57;;;;;;;;;;6143549;23;20545;-59
2024/01/28 06:02:55;;;;;;;64.32;8.02;;;;;;;;;;6142730;23;20025;-60
2024/01/28 06:05:48;;;;;;;51.63;6.93;;;;;;;;;;6144045;23;20031;-60
2024/01/28 06:08:36;;;;;;;44.33;7.72;;;;;;;;;;6142886;23;20463;-59
2024/01/28 06:11:29;;;;;;;62.50;7.50;;;;;;;;;;6145351;23;20405;-59
2024/01/28 06:14:17;;;;;;;56.00;8.68;;;;;;;;;;6142513;23;20025;-59
2024/01/28 06:17:11;;;;;;;41.58;7.18;;;;;;;;;;6143064;23;20022;-59
2024/01/28 06:19:58;;;;;;;58.53;6.90;;;;;;;;;;6144924;23;20027;-59
2024/01/28 06:22:51;;;;;;;56.10;7.18;;;;;;;;;;6143494;23;20025;-60
2024/01/28 06:25:45;;;;;;;50.22;7.72;;;;;;;;;;6143486;23;20678;-53
2024/01/28 06:28:45;;;;;;;55.05;6.80;;;;;;;;;;6144640;23;20025;-50
2024/01/28 06:31:33;;;;;;;49.03;7.85;;;;;;;;;;6142833;23;20033;-51
2024/01/28 06:34:26;;;;;;;52.35;8.30;;;;;;;;;;6144594;23;20022;-54
2024/01/28 06:37:14;;;;;;;57.00;8.20;;;;;;;;;;6144834;23;20032;-50
2024/01/28 06:40:08;;;;;;;46.22;7.45;;;;;;;;;;6144452;23;20021;-64
2024/01/28 06:42:55;;;;;;;57.30;6.80;;;;;;;;;;6143778;23;20088;-64
2024/01/28 06:45:48;;;;;;;65.95;7.95;;;;;;;;;;6142352;23;20021;-63
2024/01/28 06:48:43;;;;;;;73.20;8.13;;;;;;;;;;6143460;23;20030;-64
2024/01/28 06:51:41;;;;;;;49.45;6.25;;;;;;;;;;6143159;23;20025;-52
2024/01/28 06:54:35;;;;;;;48.90;7.50;;;;;;;;;;6144031;23;20080;-63
2024/01/28 06:57:22;;;;;;;54.72;8.60;;;;;;;;;;6143626;23;20025;-62
2024/01/28 07:00:16;;;;;;;49.55;6.55;;;;;;;;;;6141860;23;20034;-63
2024/01/28 07:03:03;;;;;;;61.78;8.02;;;;;;;;;;6144013;23;20017;-63
2024/01/28 07:05:57;;;;;;;49.72;7.60;;;;;;;;;;6144505;23;20021;-62
2024/01/28 07:08:44;;;;;;;57.63;7.80;;;;;;;;;;6144429;23;20034;-64
2024/01/28 07:11:38;;;;;;;51.78;7.43;;;;;;;;;;6141528;23;20029;-64
2024/01/28 07:14:25;;;;;;;57.47;9.18;;;;;;;;;;6140870;23;20025;-64
2024/01/28 07:17:19;;;;;;;64.95;8.07;;;;;;;;;;6142704;23;20433;-64
2024/01/28 07:20:14;;;;;;;48.80;7.00;;;;;;;;;;6143953;23;20104;-62
2024/01/28 07:23:00;;;;;;;60.00;7.85;;;;;;;;;;6143395;23;20026;-55
2024/01/28 07:26:06;;;;;;;45.10;6.25;;;;;;;;;;6143981;23;20040;-55
2024/01/28 07:29:01;;;;;;;52.47;7.68;;;;;;;;;;6144535;23;20534;-55
2024/01/28 07:31:54;;;;;;;56.95;8.50;;;;;;;;;;6145995;23;20032;-56
2024/01/28 07:34:42;;;;;;;50.03;7.63;;;;;;;;;;6145039;23;20730;-55
2024/01/28 07:37:36;;;;;;;52.85;8.13;;;;;;;;;;6144371;23;20021;-56
2024/01/28 07:40:23;;;;;;;48.53;7.45;;;;;;;;;;6144581;23;20029;-55
2024/01/28 07:43:17;;;;;;;62.90;8.00;;;;;;;;;;6144772;23;20096;-53
2024/01/28 07:46:11;;;;;;;58.25;8.38;;;;;;;;;;6140185;23;20093;-63
2024/01/28 07:48:58;;;;;;;60.38;8.25;;;;;;;;;;6143417;23;20077;-51
2024/01/28 07:51:52;;;;;;;52.22;8.23;;;;;;;;;;6142789;23;20084;-63
2024/01/28 07:54:39;;;;;;;60.58;8.70;;;;;;;;;;6141977;23;20029;-62
2024/01/28 07:57:33;;;;;;;63.38;8.43;;;;;;;;;;6144024;23;20030;-62
2024/01/28 08:00:20;;;;;;;47.55;8.70;;;;;;;;;;6142574;23;20029;-62
2024/01/28 08:03:14;;;;;;;69.53;8.95;;;;;;;;;;6143189;23;20738;-62
2024/01/28 08:06:01;;;;;;;59.22;9.68;;;;;;;;;;6142623;23;20181;-60
2024/01/28 08:08:55;;;;;;;63.88;8.82;;;;;;;;;;6142443;23;20021;-61
2024/01/28 08:11:42;;;;;;;53.95;8.40;;;;;;;;;;6143285;23;20351;-61
2024/01/28 08:14:36;;;;;;;63.88;7.32;;;;;;;;;;6143252;23;20021;-61
2024/01/28 08:17:23;;;;;;;55.05;7.88;;;;;;;;;;6144447;23;20467;-62
2024/01/28 08:20:17;;;;;;;59.05;7.97;;;;;;;;;;6144324;23;20072;-50
2024/01/28 08:23:04;;;;;;;69.55;10.02;;;;;;;;;;6143528;23;20525;-55
2024/01/28 08:25:59;;;;;;;56.03;7.53;;;;;;;;;;6144598;23;20017;-50
2024/01/28 08:28:54;;;;;;;56.95;8.18;;;;;;;;;;6145961;23;20380;-51
2024/01/28 08:31:40;;;;;;;41.22;7.65;;;;;;;;;;6145624;23;20561;-55
2024/01/28 08:34:34;;;;;;;67.85;9.20;;;;;;;;;;6145718;23;20029;-62
2024/01/28 08:37:22;;;;;;;47.67;7.73;;;;;;;;;;6145385;23;20473;-61
2024/01/28 08:40:15;;;;;;;58.70;8.30;;;;;;;;;;6145931;23;20025;-63
2024/01/28 08:43:04;;;;;;;52.10;6.80;;;;;;;;;;6145950;23;20375;-67
2024/01/28 08:45:56;;;;;;;56.10;7.90;;;;;;;;;;6146332;23;20065;-60
2024/01/28 08:48:43;;;;;;;63.22;7.63;;;;;;;;;;6146086;23;20034;-66
2024/01/28 08:51:38;;;;;;;36.35;6.75;;;;;;;;;;6143395;23;20021;-64
2024/01/28 08:54:24;;;;;;;49.28;7.88;;;;;;;;;;6145798;23;20060;-65
2024/01/28 08:57:18;;;;;;;48.67;6.78;;;;;;;;;;6143935;23;20080;-65
2024/01/28 09:00:05;;;;;;;51.95;7.68;;;;;;;;;;6143433;23;20202;-66
2024/01/28 09:03:04;;;;;;;43.75;7.53;;;;;;;;;;6144075;23;20371;-66
2024/01/28 09:05:51;;;;;;;52.08;7.65;;;;;;;;;;6139481;23;20021;-66
2024/01/28 09:08:45;;;;;;;48.42;7.90;;;;;;;;;;6142402;23;20418;-66
2024/01/28 09:11:39;;;;;;;50.92;7.47;;;;;;;;;;6142910;23;20025;-67
2024/01/28 09:14:27;;;;;;;71.78;8.68;;;;;;;;;;6143879;23;20134;-51
2024/01/28 09:17:20;;;;;;;48.38;7.88;;;;;;;;;;6144823;23;20395;-50
2024/01/28 09:20:07;;;;;;;47.00;7.35;;;;;;;;;;6142761;23;20483;-55
2024/01/28 09:23:04;;;;;;;46.42;7.70;;;;;;;;;;6146158;23;20025;-54
2024/01/28 09:25:55;;;;;;;48.30;7.30;;;;;;;;;;6143539;23;20025;-53
2024/01/28 09:28:48;;;;;;;53.17;8.27;;;;;;;;;;6143750;23;20026;-52
2024/01/28 09:31:35;;;;;;;50.47;7.05;;;;;;;;;;6143313;23;20026;-63
2024/01/28 09:34:29;;;;;;;32.42;5.53;;;;;;;;;;6143030;23;20028;-62
2024/01/28 09:37:17;;;;;;;52.17;6.97;;;;;;;;;;6144634;23;20021;-62
2024/01/28 09:40:13;;;;;;;49.55;6.13;;;;;;;;;;6144403;23;20025;-66
2024/01/28 09:43:23;;;;;;;50.55;7.28;;;;;;;;;;6143736;23;20072;-64
2024/01/28 09:46:16;;;;;;;38.60;5.55;;;;;;;;;;6144273;23;20029;-67
2024/01/28 09:49:03;;;;;;;51.08;5.90;;;;;;;;;;6144675;23;20212;-66
2024/01/28 09:51:57;;;;;;;40.83;5.55;;;;;;;;;;6143136;23;20357;-65
2024/01/28 09:54:44;;;;;;;51.70;6.85;;;;;;;;;;6143937;23;20025;-67
2024/01/28 09:57:39;;;;;;;37.92;5.03;;;;;;;;;;6142442;23;20788;-66
2024/01/28 10:00:32;;;;;;;45.67;6.55;;;;;;;;;;6142652;23;20411;-60
2024/01/28 10:03:21;;;;;;;47.95;6.30;;;;;;;;;;6144405;23;20480;-60
2024/01/28 10:06:14;;;;;;;44.63;5.53;;;;;;;;;;6140234;23;20533;-60
2024/01/28 10:09:01;;;;;;;43.75;5.88;;;;;;;;;;6142331;23;20108;-66
2024/01/28 10:11:58;;;;;;;33.72;5.43;;;;;;;;;;6140809;23;20021;-62
2024/01/28 10:14:51;;;;;;;40.88;5.40;;;;;;;;;;6142057;23;20029;-62
2024/01/28 10:17:48;;;;;;;40.60;5.60;;;;;;;;;;6143875;23;20282;-62
2024/01/28 10:20:35;;;;;;;33.92;5.38;;;;;;;;;;6140993;23;20032;-62
2024/01/28 10:23:29;;;;;;;36.20;6.05;;;;;;;;;;6143894;23;20128;-63
2024/01/28 10:26:22;;;;;;;42.92;5.72;;;;;;;;;;6140277;23;20549;-63
2024/01/28 10:29:25;;;;;;;38.20;4.95;;;;;;;;;;6143702;23;20553;-63
2024/01/28 10:32:11;;;;;;;36.03;4.07;;;;;;;;;;6143526;23;20073;-63
2024/01/28 10:35:08;;;;;;;38.08;6.00;;;;;;;;;;6143402;23;20104;-62
2024/01/28 10:38:04;;;;;;;36.25;5.32;;;;;;;;;;6144018;23;20091;-66
2024/01/28 10:40:59;;;;;;;35.90;5.68;;;;;;;;;;6142070;23;20041;-63
2024/01/28 10:43:57;;;;;;;42.28;5.82;;;;;;;;;;6144363;23;20029;-63
2024/01/28 10:46:54;;;;;;;36.58;5.20;;;;;;;;;;6144224;23;20029;-63
2024/01/28 10:49:42;;;;;;;36.42;4.95;;;;;;;;;;6139811;23;20035;-63
2024/01/28 10:52:38;;;;;;;45.53;6.25;;;;;;;;;;6138815;23;20029;-63
2024/01/28 10:55:25;;;;;;;43.38;5.45;;;;;;;;;;6144857;23;20021;-63
2024/01/28 10:58:20;;;;;;;21.83;3.47;;;;;;;;;;6142857;23;20340;-62
2024/01/28 11:01:07;;;;;;;28.08;4.47;;;;;;;;;;6141376;23;20395;-62
2024/01/28 11:04:02;;;;;;;32.53;4.85;;;;;;;;;;6139415;23;20753;-62
2024/01/28 11:06:56;;;;;;;32.42;4.40;;;;;;;;;;6141382;23;20068;-60
2024/01/28 11:09:43;;;;;;;30.38;5.75;;;;;;;;;;6139430;23;20643;-50
2024/01/28 11:12:37;;;;;;;49.00;6.07;;;;;;;;;;6139794;23;20029;-54
2024/01/28 11:15:26;;;;;;;42.60;6.35;;;;;;;;;;6139335;23;20487;-50
2024/01/28 11:18:18;;;;;;;35.70;4.78;;;;;;;;;;6139764;23;20029;-51
2024/01/28 11:21:19;;;;;;;29.48;4.35;;;;;;;;;;6140495;23;20029;-50
2024/01/28 11:24:14;;;;;;;27.90;3.80;;;;;;;;;;6139723;23;20025;-51
2024/01/28 11:27:08;;;;;;;39.08;5.72;;;;;;;;;;6138586;23;20030;-59
2024/01/28 11:30:03;;;;;;;29.83;4.75;;;;;;;;;;6138678;23;20032;-58
2024/01/28 11:33:09;;;;;;;31.38;5.70;;;;;;;;;;6139307;23;20250;-60
2024/01/28 11:36:09;;;;;;;35.70;4.72;;;;;;;;;;6139009;23;20104;-61
2024/01/28 11:39:12;;;;;;;34.83;4.80;;;;;;;;;;6139561;23;20468;-60
2024/01/28 11:41:58;;;;;;;37.60;4.80;;;;;;;;;;6139293;23;20112;-60
2024/01/28 11:44:52;;;;;;;32.70;5.53;;;;;;;;;;6142395;23;20403;-60
2024/01/28 11:47:45;;;;;;;39.45;5.32;;;;;;;;;;6143635;23;20502;-62
2024/01/28 11:50:43;;;;;;;32.10;5.47;;;;;;;;;;6142493;23;20026;-63
2024/01/28 11:53:28;;;;;;;25.48;3.67;;;;;;;;;;6145453;23;20100;-63
2024/01/28 11:56:21;;;;;;;33.80;5.32;;;;;;;;;;6145441;23;20025;-62
2024/01/28 11:59:11;;;;;;;33.35;4.38;;;;;;;;;;6145518;23;20784;-63
2024/01/28 12:02:04;;;;;;;35.83;4.32;;;;;;;;;;6144334;23;20076;-60
2024/01/28 12:04:56;;;;;;;27.30;4.80;;;;;;;;;;6143330;23;20028;-60
2024/01/28 12:07:53;;;;;;;34.85;5.45;;;;;;;;;;6144477;23;20117;-60
2024/01/28 12:10:37;;;;;;;31.40;4.63;;;;;;;;;;6140739;23;20537;-53
2024/01/28 12:13:32;;;;;;;29.77;5.10;;;;;;;;;;6142451;23;20022;-67
2024/01/28 12:16:20;;;;;;;22.63;3.88;;;;;;;;;;6143749;23;20459;-63
2024/01/28 12:19:13;;;;;;;34.35;4.57;;;;;;;;;;6140377;23;20371;-62
2024/01/28 12:22:00;;;;;;;27.13;4.35;;;;;;;;;;6143084;23;20024;-63
2024/01/28 12:24:54;;;;;;;20.38;3.97;;;;;;;;;;6141627;23;20030;-63
2024/01/28 12:27:49;;;;;;;35.47;6.95;;;;;;;;;;6142607;23;20021;-63
2024/01/28 12:30:43;;;;;;;30.63;4.22;;;;;;;;;;6143377;23;20363;-63
2024/01/28 12:33:31;;;;;;;33.97;4.85;;;;;;;;;;6143387;23;20045;-62
2024/01/28 12:36:25;;;;;;;25.52;4.65;;;;;;;;;;6143573;23;20212;-63
2024/01/28 12:39:12;;;;;;;34.92;4.90;;;;;;;;;;6144865;23;20022;-62
2024/01/28 12:42:06;;;;;;;28.83;4.30;;;;;;;;;;6143027;23;20028;-63
2024/01/28 12:44:53;;;;;;;29.98;5.10;;;;;;;;;;6145201;23;20026;-63
2024/01/28 12:47:47;;;;;;;24.05;4.75;;;;;;;;;;6145794;23;20072;-64
2024/01/28 12:50:35;;;;;;;35.35;5.25;;;;;;;;;;6145973;23;20094;-63
2024/01/28 12:53:29;;;;;;;27.40;5.13;;;;;;;;;;6144548;23;20029;-62
2024/01/28 12:56:16;;;;;;;28.17;6.05;;;;;;;;;;6144639;23;20088;-63
2024/01/28 12:59:10;;;;;;;34.75;4.93;;;;;;;;;;6146316;23;20026;-66
2024/01/28 13:02:04;;;;;;;29.40;5.38;;;;;;;;;;6144580;23;20021;-67
2024/01/28 13:04:51;;;;;;;32.33;4.78;;;;;;;;;;6143770;23;20024;-67
2024/01/28 13:07:45;;;;;;;31.88;4.65;;;;;;;;;;6143676;23;20022;-66
2024/01/28 13:10:32;;;;;;;24.13;5.03;;;;;;;;;;6142710;23;20026;-60
2024/01/28 13:13:27;;;;;;;25.45;4.80;;;;;;;;;;6143895;23;20060;-60
2024/01/28 13:16:13;;;;;;;29.63;4.93;;;;;;;;;;6143131;23;20085;-60
2024/01/28 13:19:07;;;;;;;48.95;17.48;;;;;;;;;;6140678;23;20029;-60
2024/01/28 13:21:54;;;;;;;28.50;7.30;;;;;;;;;;6142453;23;20428;-60
2024/01/28 13:24:51;;;;;;;33.97;6.60;;;;;;;;;;6143491;23;20347;-59
2024/01/28 13:27:42;;;;;;;41.65;6.53;;;;;;;;;;6143598;23;20422;-63
2024/01/28 13:30:36;;;;;;;33.85;5.65;;;;;;;;;;6142160;23;20030;-63
2024/01/28 13:33:23;;;;;;;29.75;6.97;;;;;;;;;;6142489;23;20064;-64
2024/01/28 13:36:17;;;;;;;27.50;5.07;;;;;;;;;;6144304;23;20025;-50
2024/01/28 13:39:13;;;;;;;31.98;5.65;;;;;;;;;;6144123;23;20060;-60
2024/01/28 13:42:06;;;;;;;27.52;5.47;;;;;;;;;;6143280;23;20025;-60
2024/01/28 13:44:53;;;;;;;31.73;5.72;;;;;;;;;;6144121;23;20459;-60
2024/01/28 13:47:47;;;;;;;35.05;6.40;;;;;;;;;;6144513;23;20025;-60
2024/01/28 13:50:41;;;;;;;25.17;5.40;;;;;;;;;;6145090;23;20064;-60
2024/01/28 13:53:35;;;;;;;33.08;6.60;;;;;;;;;;6145016;23;20084;-60
2024/01/28 13:56:33;;;;;;;27.40;6.45;;;;;;;;;;6145087;23;20371;-66
2024/01/28 13:59:24;;;;;;;38.70;5.85;;;;;;;;;;6143410;23;20033;-66
2024/01/28 14:02:11;;;;;;;24.35;5.32;;;;;;;;;;6141881;23;20784;-66
2024/01/28 14:05:07;;;;;;;30.20;5.32;;;;;;;;;;6144670;23;20490;-62
2024/01/28 14:07:52;;;;;;;36.55;6.53;;;;;;;;;;6143644;23;20077;-66
2024/01/28 14:10:46;;;;;;;36.95;6.57;;;;;;;;;;6142905;23;20025;-67
2024/01/28 14:13:33;;;;;;;30.10;6.13;;;;;;;;;;6142951;23;20084;-67
2024/01/28 14:16:27;;;;;;;25.75;6.40;;;;;;;;;;6142933;23;20542;-67
2024/01/28 14:19:21;;;;;;;30.25;7.72;;;;;;;;;;6145330;23;20029;-67
2024/01/28 14:22:08;;;;;;;31.33;7.35;;;;;;;;;;6143432;23;20566;-67
2024/01/28 14:25:02;;;;;;;35.00;8.63;;;;;;;;;;6143149;23;20049;-62
2024/01/28 14:27:55;;;;;;;29.15;10.05;;;;;;;;;;6140888;23;20025;-62
2024/01/28 14:30:50;;;;;;;68.93;24.35;;;;;;;;;;6140584;23;20153;-63
2024/01/28 14:33:37;;;;;;;35.30;10.70;;;;;;;;;;6140991;23;20021;-49
2024/01/28 14:36:31;;;;;;;41.95;11.10;;;;;;;;;;6137395;23;20032;-67
2024/01/28 14:39:18;;;;;;;37.38;10.25;;;;;;;;;;6140640;23;20490;-66
2024/01/28 14:42:12;;;;;;;37.00;9.43;;;;;;;;;;6141279;23;20017;-67
2024/01/28 14:45:06;;;;;;;43.95;11.48;;;;;;;;;;6142161;23;20088;-66
2024/01/28 14:48:00;;;;;;;29.88;9.52;;;;;;;;;;6140952;23;20055;-67
2024/01/28 14:50:49;;;;;;;39.03;9.93;;;;;;;;;;6142016;23;20026;-67
2024/01/28 14:53:43;;;;;;;40.25;10.27;;;;;;;;;;6140733;23;20108;-64
2024/01/28 14:56:30;;;;;;;40.65;11.40;;;;;;;;;;6143182;23;20026;-64
2024/01/28 14:59:24;;;;;;;41.53;10.13;;;;;;;;;;6141702;23;20272;-63
2024/01/28 15:02:11;;;;;;;37.85;10.77;;;;;;;;;;6140524;23;20021;-60
2024/01/28 15:05:05;;;;;;;35.65;10.32;;;;;;;;;;6140561;23;20085;-46
2024/01/28 15:07:52;;;;;;;36.28;11.05;;;;;;;;;;6140663;23;20084;-52
2024/01/28 15:10:46;;;;;;;38.60;11.18;;;;;;;;;;6140973;23;20084;-50
2024/01/28 15:13:33;;;;;;;35.28;10.80;;;;;;;;;;6140413;23;20444;-52
2024/01/28 15:16:27;;;;;;;41.42;11.25;;;;;;;;;;6139896;23;20044;-49
2024/01/28 15:19:14;;;;;;;34.60;10.85;;;;;;;;;;6140833;23;20037;-51
2024/01/28 15:22:08;;;;;;;53.20;11.75;;;;;;;;;;6137788;23;20021;-62
2024/01/28 15:24:55;;;;;;;44.50;11.90;;;;;;;;;;6137313;23;20025;-62
2024/01/28 15:27:55;;;;;;;38.78;10.73;;;;;;;;;;6139167;23;20021;-62
2024/01/28 15:30:55;;;;;;;51.88;13.00;;;;;;;;;;6139729;23;20056;-62
2024/01/28 15:33:42;;;;;;;53.00;12.20;;;;;;;;;;6140892;23;20434;-59
2024/01/28 15:36:36;;;;;;;52.92;12.93;;;;;;;;;;6140167;23;20057;-60
2024/01/28 15:39:24;;;;;;;56.38;12.05;;;;;;;;;;6140339;23;20065;-59
2024/01/28 15:42:18;;;;;;;40.30;11.70;;;;;;;;;;6141624;23;20025;-59
2024/01/28 15:45:06;;;;;;;48.45;13.18;;;;;;;;;;6141152;23;20435;-60
2024/01/28 15:48:01;;;;;;;52.00;16.88;;;;;;;;;;6140464;23;20354;-54
2024/01/28 15:50:48;;;;;;;64.50;19.95;;;;;;;;;;6141780;23;20029;-52
2024/01/28 15:53:42;;;;;;;43.40;12.60;;;;;;;;;;6141785;23;20029;-56
2024/01/28 15:56:29;;;;;;;32.17;11.63;;;;;;;;;;6139458;23;20083;-53
2024/01/28 15:59:23;;;;;;;37.30;12.00;;;;;;;;;;6140134;23;20032;-63
2024/01/28 16:02:29;;;;;;;48.42;11.95;;;;;;;;;;6137998;23;20025;-67
2024/01/28 16:05:24;;;;;;;48.63;12.23;;;;;;;;;;6139627;23;20029;-66
2024/01/28 16:08:12;;;;;;;48.90;12.60;;;;;;;;;;6138907;23;20029;-66
2024/01/28 16:11:05;;;;;;;51.30;12.40;;;;;;;;;;6139643;23;20040;-66
2024/01/28 16:13:52;;;;;;;51.80;12.93;;;;;;;;;;6140038;23;20096;-66
2024/01/28 16:16:46;;;;;;;54.38;13.40;;;;;;;;;;6140898;23;20026;-52
2024/01/28 16:19:33;;;;;;;57.38;12.88;;;;;;;;;;6139086;23;20028;-52
2024/01/28 16:22:29;;;;;;;47.42;12.93;;;;;;;;;;6136613;23;20022;-48
2024/01/28 16:25:21;;;;;;;48.55;13.63;;;;;;;;;;6140305;23;20032;-51
2024/01/28 16:28:16;;;;;;;48.83;16.70;;;;;;;;;;6140682;23;20419;-51
2024/01/28 16:31:11;;;;;;;52.70;14.35;;;;;;;;;;6141023;23;20751;-59
2024/01/28 16:33:58;;;;;;;65.70;19.48;;;;;;;;;;6142698;23;20029;-58
2024/01/28 16:36:52;;;;;;;49.78;14.60;;;;;;;;;;6141597;23;20022;-59
2024/01/28 16:39:39;;;;;;;55.80;16.70;;;;;;;;;;6143790;23;20048;-60
2024/01/28 16:42:33;;;;;;;46.38;15.15;;;;;;;;;;6142676;23;20327;-60